Time;durP1;ratioP1;P1;durP2;ratioP2;P2;SDS_P1;SDS_P2;PMS_P1;PMS_P2;Temp;Humidity;BMP_temperature;BMP_pressure;BME280_temperature;BME280_humidity;BME280_pressure;Samples;Min_cycle;Max_cycle;Signal;HPM_P1;HPM_P2
2022/04/24 00:01:49;;;;;;;;;;;;;;;9.15;83.86;97197.34;1669329;84;24416;-87
2022/04/24 00:04:15;;;;;;;;;;;;;;;9.11;83.89;97192.02;1669668;84;20271;-87
2022/04/24 00:06:41;;;;;;;;;;;;;;;9.04;84.01;97192.20;1668006;84;24898;-87
2022/04/24 00:09:08;;;;;;;;;;;;;;;8.98;84.18;97191.88;1669140;84;21935;-87
2022/04/24 00:11:34;;;;;;;;;;;;;;;8.90;84.46;97189.89;1668726;86;25592;-86
2022/04/24 00:14:00;;;;;;;;;;;;;;;8.80;84.72;97187.22;1669300;84;24524;-87
2022/04/24 00:16:26;;;;;;;;;;;;;;;8.73;84.93;97182.14;1643192;84;20301;-87
2022/04/24 00:18:52;;;;;;;;;;;;;;;8.70;85.22;97181.58;1670999;84;24969;-87
2022/04/24 00:21:19;;;;;;;;;;;;;;;8.66;85.56;97182.33;1671749;84;22034;-87
2022/04/24 00:23:45;;;;;;;;;;;;;;;8.60;85.87;97171.09;1667839;84;25864;-86
2022/04/24 00:26:11;;;;;;;;;;;;;;;8.59;86.27;97170.73;1669921;84;24469;-87
2022/04/24 00:28:37;;;;;;;;;;;;;;;8.67;86.75;97172.22;1669808;84;20483;-86
2022/04/24 00:31:03;;;;;;;;;;;;;;;8.85;87.36;97168.57;1671935;84;24793;-87
2022/04/24 00:33:31;;;;;;;;;;;;;;;8.90;87.79;97158.58;1671519;84;20237;-87
2022/04/24 00:35:57;;;;;;;;;;;;;;;8.85;87.98;97154.70;1670283;85;26147;-88
2022/04/24 00:38:23;;;;;;;;;;;;;;;8.79;88.22;97155.56;1665638;84;24513;-88
2022/04/24 00:40:49;;;;;;;;;;;;;;;8.73;88.45;97150.84;1671782;84;20230;-87
2022/04/24 00:43:15;;;;;;;;;;;;;;;8.69;88.68;97152.54;1670220;84;25671;-86
2022/04/24 00:45:41;;;;;;;;;;;;;;;8.65;88.94;97145.45;1671600;84;20324;-86
2022/04/24 00:48:08;;;;;;;;;;;;;;;8.65;89.23;97149.37;1669045;84;25999;-86
2022/04/24 00:50:34;;;;;;;;;;;;;;;8.66;89.48;97147.59;1672096;84;24622;-86
2022/04/24 00:53:00;;;;;;;;;;;;;;;8.62;89.72;97153.52;1667849;84;20456;-86
2022/04/24 00:55:27;;;;;;;;;;;;;;;8.59;89.96;97143.34;1638930;86;24776;-86
2022/04/24 00:57:53;;;;;;;;;;;;;;;8.57;90.22;97140.50;1611179;87;21964;-87
2022/04/24 01:00:20;;;;;;;;;;;;;;;8.56;90.50;97141.48;1656849;85;25979;-86
2022/04/24 01:02:46;;;;;;;;;;;;;;;8.55;90.79;97138.05;1667572;84;24421;-87
2022/04/24 01:05:12;;;;;;;;;;;;;;;8.54;91.16;97131.17;1669858;84;20246;-87
2022/04/24 01:07:38;;;;;;;;;;;;;;;8.53;91.46;97126.91;1666631;84;24567;-87
2022/04/24 01:10:04;;;;;;;;;;;;;;;8.51;91.70;97124.89;1665041;85;21995;-87
2022/04/24 01:12:30;;;;;;;;;;;;;;;8.51;91.97;97130.10;1666915;84;26053;-87
2022/04/24 01:14:57;;;;;;;;;;;;;;;8.47;92.20;97120.89;1667924;84;20273;-87
2022/04/24 01:17:23;;;;;;;;;;;;;;;8.43;92.46;97135.13;1668351;84;20524;-87
2022/04/24 01:19:49;;;;;;;;;;;;;;;8.51;92.84;97128.80;1667615;84;24824;-87
2022/04/24 01:22:17;;;;;;;;;;;;;;;8.72;93.42;97124.44;1665670;84;22005;-87
2022/04/24 01:24:43;;;;;;;;;;;;;;;8.89;93.88;97123.51;1665198;84;26718;-87
2022/04/24 01:27:09;;;;;;;;;;;;;;;9.06;94.32;97118.50;1670575;84;24525;-87
2022/04/24 01:29:35;;;;;;;;;;;;;;;9.12;94.50;97117.16;1669254;84;20252;-87
2022/04/24 01:32:01;;;;;;;;;;;;;;;9.06;94.47;97111.98;1665072;86;20205;-87
2022/04/24 01:34:28;;;;;;;;;;;;;;;8.99;94.42;97114.78;1663775;84;22034;-87
2022/04/24 01:36:57;;;;;;;;;;;;;;;8.95;94.45;97115.97;1665645;86;25948;-87
2022/04/24 01:39:22;;;;;;;;;;;;;;;8.91;94.53;97113.28;1665146;84;24625;-87
2022/04/24 01:41:48;;;;;;;;;;;;;;;8.87;94.62;97114.50;1666438;84;20399;-87
2022/04/24 01:44:15;;;;;;;;;;;;;;;8.89;94.78;97111.77;1667940;84;23703;-87
2022/04/24 01:46:41;;;;;;;;;;;;;;;8.91;95.04;97115.05;1666221;84;22025;-87
2022/04/24 01:49:07;;;;;;;;;;;;;;;8.93;95.29;97107.94;1668422;84;26041;-87
2022/04/24 01:51:33;;;;;;;;;;;;;;;8.94;95.45;97095.25;1667447;84;24498;-87
2022/04/24 01:53:59;;;;;;;;;;;;;;;8.95;95.62;97099.48;1644838;86;20231;-88
2022/04/24 01:56:25;;;;;;;;;;;;;;;9.00;95.80;97097.34;1637689;85;20286;-87
2022/04/24 01:58:53;;;;;;;;;;;;;;;9.12;96.14;97094.97;1639632;85;21963;-88
2022/04/24 02:01:19;;;;;;;;;;;;;;;9.21;96.42;97091.13;1637820;86;27191;-88
2022/04/24 02:03:45;;;;;;;;;;;;;;;9.34;96.74;97090.88;1638677;85;24447;-89
2022/04/24 02:06:12;;;;;;;;;;;;;;;9.41;96.93;97090.70;1609256;87;20633;-88
2022/04/24 02:08:38;;;;;;;;;;;;;;;9.52;97.17;97086.67;1607938;87;24732;-88
2022/04/24 02:11:06;;;;;;;;;;;;;;;9.53;97.20;97094.03;1631330;88;22737;-87
2022/04/24 02:13:33;;;;;;;;;;;;;;;9.60;97.41;97092.55;1636269;86;26147;-87
2022/04/24 02:15:59;;;;;;;;;;;;;;;9.70;97.63;97085.55;1635243;86;25289;-87
2022/04/24 02:18:25;;;;;;;;;;;;;;;9.79;97.72;97081.30;1636427;86;20535;-86
2022/04/24 02:20:51;;;;;;;;;;;;;;;9.76;97.62;97078.97;1635956;86;24968;-87
2022/04/24 02:23:17;;;;;;;;;;;;;;;9.67;97.42;97083.20;1637000;86;20853;-87
2022/04/24 02:25:43;;;;;;;;;;;;;;;9.51;97.14;97090.72;1608533;87;26121;-87
2022/04/24 02:28:09;;;;;;;;;;;;;;;9.39;97.03;97083.94;1608534;87;20384;-88
2022/04/24 02:30:35;;;;;;;;;;;;;;;9.28;96.97;97075.73;1636746;86;20309;-87
2022/04/24 02:33:01;;;;;;;;;;;;;;;9.15;96.93;97072.55;1637173;86;20275;-87
2022/04/24 02:35:27;;;;;;;;;;;;;;;9.05;96.88;97081.64;1634285;86;22018;-87
2022/04/24 02:37:53;;;;;;;;;;;;;;;8.97;96.96;97074.10;1636285;86;25991;-87
2022/04/24 02:40:21;;;;;;;;;;;;;;;8.99;97.19;97073.50;1635687;86;24510;-87
2022/04/24 02:42:53;;;;;;;;;;;;;;;8.97;97.36;97071.49;1635914;86;20235;-87
2022/04/24 02:45:17;;;;;;;;;;;;;;;8.93;97.56;97074.85;1632079;86;24864;-87
2022/04/24 02:47:43;;;;;;;;;;;;;;;8.98;97.87;97071.38;1608651;87;22109;-86
2022/04/24 02:50:15;;;;;;;;;;;;;;;9.05;98.25;97070.38;1636001;86;26039;-87
2022/04/24 02:52:45;;;;;;;;;;;;;;;9.08;98.60;97068.32;1634290;86;24473;-87
2022/04/24 02:55:12;;;;;;;;;;;;;;;9.16;98.96;97066.37;1640273;86;20244;-87
2022/04/24 02:57:38;;;;;;;;;;;;;;;9.29;99.40;97070.03;1640008;86;25401;-87
2022/04/24 03:00:12;;;;;;;;;;;;;;;9.40;99.78;97061.63;1640843;86;20331;-88
2022/04/24 03:02:43;;;;;;;;;;;;;;;9.42;99.99;97061.50;1640597;86;26054;-86
2022/04/24 03:05:10;;;;;;;;;;;;;;;9.36;100.00;97056.80;1637923;86;24480;-86
2022/04/24 03:07:36;;;;;;;;;;;;;;;9.33;100.00;97052.66;1640859;86;20251;-86
2022/04/24 03:10:03;;;;;;;;;;;;;;;9.26;100.00;97054.17;1639882;87;24750;-86
2022/04/24 03:12:29;;;;;;;;;;;;;;;9.15;100.00;97052.97;1638631;86;21967;-88
2022/04/24 03:14:56;;;;;;;;;;;;;;;9.17;100.00;97056.25;1640338;86;26147;-87
2022/04/24 03:17:22;;;;;;;;;;;;;;;9.09;100.00;97049.58;1639570;86;24424;-88
2022/04/24 03:19:48;;;;;;;;;;;;;;;8.96;100.00;97052.40;1640475;85;20169;-88
2022/04/24 03:22:14;;;;;;;;;;;;;;;8.94;100.00;97050.42;1662707;85;20316;-88
2022/04/24 03:24:40;;;;;;;;;;;;;;;8.91;100.00;97044.62;1656680;85;21966;-87
2022/04/24 03:27:06;;;;;;;;;;;;;;;8.84;100.00;97040.91;1624873;86;21857;-88
2022/04/24 03:29:32;;;;;;;;;;;;;;;8.83;100.00;97043.98;1631151;87;24437;-88
2022/04/24 03:31:58;;;;;;;;;;;;;;;8.84;100.00;97036.98;1660437;86;20567;-88
2022/04/24 03:34:24;;;;;;;;;;;;;;;8.71;100.00;97030.20;1663011;85;20199;-88
2022/04/24 03:36:50;;;;;;;;;;;;;;;8.65;100.00;97027.27;1660885;85;20309;-88
2022/04/24 03:39:17;;;;;;;;;;;;;;;8.57;100.00;97033.59;1660469;85;25986;-88
2022/04/24 03:41:43;;;;;;;;;;;;;;;8.49;100.00;97029.05;1661406;84;24530;-87
2022/04/24 03:44:09;;;;;;;;;;;;;;;8.46;100.00;97033.19;1662184;84;20336;-87
2022/04/24 03:46:35;;;;;;;;;;;;;;;8.43;100.00;97032.16;1657095;86;20222;-88
2022/04/24 03:49:01;;;;;;;;;;;;;;;8.38;100.00;97029.94;1660865;85;20268;-86
2022/04/24 03:51:27;;;;;;;;;;;;;;;8.37;100.00;97024.38;1660954;85;26040;-87
2022/04/24 03:53:53;;;;;;;;;;;;;;;8.34;100.00;97025.12;1663637;84;24727;-86
2022/04/24 03:56:19;;;;;;;;;;;;;;;8.28;100.00;97028.20;1668567;84;20328;-86
2022/04/24 03:58:45;;;;;;;;;;;;;;;8.24;100.00;97030.69;1653152;84;25540;-86
2022/04/24 04:01:12;;;;;;;;;;;;;;;8.25;100.00;97033.17;1667305;84;20937;-86
2022/04/24 04:03:38;;;;;;;;;;;;;;;8.38;100.00;97033.02;1667764;84;26004;-87
2022/04/24 04:06:04;;;;;;;;;;;;;;;8.43;100.00;97026.95;1665761;84;24439;-86
2022/04/24 04:08:30;;;;;;;;;;;;;;;8.49;100.00;97025.61;1668017;84;20222;-87
2022/04/24 04:10:56;;;;;;;;;;;;;;;8.50;100.00;97021.58;1667993;84;24807;-87
2022/04/24 04:13:26;;;;;;;;;;;;;;;8.55;100.00;97022.02;1666373;84;21982;-86
2022/04/24 04:15:52;;;;;;;;;;;;;;;8.60;100.00;97027.66;1635974;86;26075;-86
2022/04/24 04:18:18;;;;;;;;;;;;;;;8.60;100.00;97028.14;1630156;86;24260;-86
2022/04/24 04:20:44;;;;;;;;;;;;;;;8.72;100.00;97021.42;1637025;86;20307;-86
2022/04/24 04:23:10;;;;;;;;;;;;;;;8.91;100.00;97026.36;1668281;84;20829;-86
2022/04/24 04:25:36;;;;;;;;;;;;;;;8.99;100.00;97027.37;1667302;84;21966;-86
2022/04/24 04:28:02;;;;;;;;;;;;;;;9.08;100.00;97023.95;1667491;84;21200;-86
2022/04/24 04:30:29;;;;;;;;;;;;;;;9.18;100.00;97023.98;1667424;84;24457;-86
2022/04/24 04:32:55;;;;;;;;;;;;;;;9.18;100.00;97027.89;1668327;84;20458;-86
2022/04/24 04:35:23;;;;;;;;;;;;;;;9.13;100.00;97030.91;1670266;84;24783;-86
2022/04/24 04:37:49;;;;;;;;;;;;;;;9.11;100.00;97032.02;1666824;84;22067;-86
2022/04/24 04:40:18;;;;;;;;;;;;;;;9.20;100.00;97032.04;1666597;85;25982;-86
2022/04/24 04:42:43;;;;;;;;;;;;;;;9.18;100.00;97032.64;1663403;84;24319;-85
2022/04/24 04:45:10;;;;;;;;;;;;;;;9.24;100.00;97037.81;1666503;84;20264;-85
2022/04/24 04:47:36;;;;;;;;;;;;;;;9.17;100.00;97030.16;1667074;85;25078;-86
2022/04/24 04:50:02;;;;;;;;;;;;;;;9.06;100.00;97029.77;1668146;84;21990;-88
2022/04/24 04:52:28;;;;;;;;;;;;;;;8.96;100.00;97028.09;1668240;84;26189;-85
2022/04/24 04:54:54;;;;;;;;;;;;;;;8.87;100.00;97034.11;1668995;84;24471;-87
2022/04/24 04:57:20;;;;;;;;;;;;;;;8.81;100.00;97033.67;1669508;84;20283;-87
2022/04/24 04:59:46;;;;;;;;;;;;;;;8.75;100.00;97027.66;1669159;84;20276;-87
2022/04/24 05:02:13;;;;;;;;;;;;;;;8.69;100.00;97022.97;1669635;84;22072;-87
2022/04/24 05:04:43;;;;;;;;;;;;;;;8.63;100.00;97024.78;1670544;84;25545;-87
2022/04/24 05:07:07;;;;;;;;;;;;;;;8.59;100.00;97024.70;1670158;84;24523;-87
2022/04/24 05:09:33;;;;;;;;;;;;;;;8.59;100.00;97029.92;1669250;84;20520;-87
2022/04/24 05:11:59;;;;;;;;;;;;;;;8.55;100.00;97026.40;1666932;86;24929;-87
2022/04/24 05:14:26;;;;;;;;;;;;;;;8.53;100.00;97030.91;1671355;84;21954;-87
2022/04/24 05:16:52;;;;;;;;;;;;;;;8.52;100.00;97030.08;1665807;84;26153;-87
2022/04/24 05:19:18;;;;;;;;;;;;;;;8.54;100.00;97024.74;1667213;86;24407;-86
2022/04/24 05:21:44;;;;;;;;;;;;;;;8.58;100.00;97023.05;1670095;84;20292;-87
2022/04/24 05:24:09;;;;;;;;;;;;;;;8.64;100.00;97019.92;1670862;84;20815;-86
2022/04/24 05:26:35;;;;;;;;;;;;;;;8.70;100.00;97016.80;1669499;84;20440;-87
2022/04/24 05:29:03;;;;;;;;;;;;;;;8.74;100.00;97014.75;1669836;84;21054;-86
2022/04/24 05:31:30;;;;;;;;;;;;;;;8.81;100.00;97017.19;1673883;84;25402;-86
2022/04/24 05:33:56;;;;;;;;;;;;;;;8.87;100.00;97009.32;1670437;84;20257;-86
2022/04/24 05:36:22;;;;;;;;;;;;;;;8.92;100.00;97005.84;1673119;84;20393;-87
2022/04/24 05:38:48;;;;;;;;;;;;;;;8.93;100.00;97000.97;1674642;84;21979;-87
2022/04/24 05:41:14;;;;;;;;;;;;;;;8.95;100.00;96997.73;1669420;84;26786;-87
2022/04/24 05:43:41;;;;;;;;;;;;;;;8.97;100.00;96995.35;1670040;84;24418;-87
2022/04/24 05:46:07;;;;;;;;;;;;;;;9.00;100.00;96998.98;1669952;84;20292;-86
2022/04/24 05:48:33;;;;;;;;;;;;;;;9.03;100.00;97006.56;1669816;84;24827;-87
2022/04/24 05:50:59;;;;;;;;;;;;;;;9.08;100.00;96994.42;1668519;84;22034;-86
2022/04/24 05:53:25;;;;;;;;;;;;;;;9.12;100.00;96994.02;1670860;84;26039;-86
2022/04/24 05:55:52;;;;;;;;;;;;;;;9.16;100.00;97003.73;1667898;84;25459;-86
2022/04/24 05:58:18;;;;;;;;;;;;;;;9.21;100.00;96991.94;1669490;84;20393;-86
2022/04/24 06:00:47;;;;;;;;;;;;;;;9.26;100.00;96992.00;1668631;84;20777;-86
2022/04/24 06:03:13;;;;;;;;;;;;;;;9.28;100.00;96996.11;1670513;84;22057;-87
2022/04/24 06:05:39;;;;;;;;;;;;;;;9.28;100.00;96990.06;1668996;84;21894;-86
2022/04/24 06:08:05;;;;;;;;;;;;;;;9.29;100.00;96986.50;1668166;86;20371;-86
2022/04/24 06:10:31;;;;;;;;;;;;;;;9.32;100.00;96990.16;1671363;84;20205;-87
2022/04/24 06:12:57;;;;;;;;;;;;;;;9.33;100.00;96981.38;1669388;84;24740;-86
2022/04/24 06:15:25;;;;;;;;;;;;;;;9.36;100.00;96991.06;1669909;84;22045;-87
2022/04/24 06:17:52;;;;;;;;;;;;;;;9.39;100.00;96986.03;1669526;84;26626;-86
2022/04/24 06:20:19;;;;;;;;;;;;;;;9.40;100.00;96985.91;1669583;86;24553;-87
2022/04/24 06:22:45;;;;;;;;;;;;;;;9.43;100.00;96986.13;1667879;84;20456;-87
2022/04/24 06:25:16;;;;;;;;;;;;;;;9.46;100.00;96978.84;1669297;86;24771;-87
2022/04/24 06:27:44;;;;;;;;;;;;;;;9.54;100.00;96981.61;1667619;84;22164;-87
2022/04/24 06:30:11;;;;;;;;;;;;;;;9.62;100.00;96980.91;1669274;86;26180;-88
2022/04/24 06:32:39;;;;;;;;;;;;;;;9.69;100.00;96972.88;1669312;84;24526;-87
2022/04/24 06:35:09;;;;;;;;;;;;;;;9.76;100.00;96981.83;1669669;86;20225;-88
2022/04/24 06:37:34;;;;;;;;;;;;;;;9.82;100.00;96977.33;1665327;86;24942;-87
2022/04/24 06:40:00;;;;;;;;;;;;;;;9.83;100.00;96977.68;1668861;84;22550;-88
2022/04/24 06:42:26;;;;;;;;;;;;;;;9.86;100.00;96976.59;1668777;84;25982;-87
2022/04/24 06:44:54;;;;;;;;;;;;;;;9.90;100.00;96977.96;1670599;84;24417;-86
2022/04/24 06:47:20;;;;;;;;;;;;;;;9.94;100.00;96969.70;1670656;84;20281;-86
2022/04/24 06:49:46;;;;;;;;;;;;;;;9.96;100.00;96961.25;1669425;84;24840;-86
2022/04/24 06:52:12;;;;;;;;;;;;;;;10.02;100.00;96962.48;1671026;84;20923;-86
2022/04/24 06:54:38;;;;;;;;;;;;;;;10.07;100.00;96965.50;1669421;83;25978;-85
2022/04/24 06:57:05;;;;;;;;;;;;;;;10.11;100.00;96964.25;1667184;84;24517;-88
2022/04/24 06:59:32;;;;;;;;;;;;;;;10.14;100.00;96959.23;1671154;84;20235;-87
2022/04/24 07:01:58;;;;;;;;;;;;;;;10.15;100.00;96956.94;1668113;84;20248;-87
2022/04/24 07:04:24;;;;;;;;;;;;;;;10.17;100.00;96948.52;1669190;84;21932;-87
2022/04/24 07:06:50;;;;;;;;;;;;;;;10.20;100.00;96941.20;1666945;84;20963;-87
2022/04/24 07:09:16;;;;;;;;;;;;;;;10.26;100.00;96940.64;1667788;84;24420;-88
2022/04/24 07:11:42;;;;;;;;;;;;;;;10.30;100.00;96934.19;1667667;84;20713;-87
2022/04/24 07:14:08;;;;;;;;;;;;;;;10.34;100.00;96932.10;1667068;84;24760;-89
2022/04/24 07:16:35;;;;;;;;;;;;;;;10.36;100.00;96933.62;1666031;84;20848;-89
2022/04/24 07:19:01;;;;;;;;;;;;;;;10.39;100.00;96935.94;1671155;84;26010;-87
2022/04/24 07:21:27;;;;;;;;;;;;;;;10.40;100.00;96932.84;1669780;84;24481;-87
2022/04/24 07:23:53;;;;;;;;;;;;;;;10.41;100.00;96933.19;1666982;84;20799;-86
2022/04/24 07:26:19;;;;;;;;;;;;;;;10.39;100.00;96932.50;1665350;84;24884;-87
2022/04/24 07:28:45;;;;;;;;;;;;;;;10.38;100.00;96935.59;1667386;86;21926;-87
2022/04/24 07:31:14;;;;;;;;;;;;;;;10.37;100.00;96934.42;1666671;84;20984;-87
2022/04/24 07:33:40;;;;;;;;;;;;;;;10.35;100.00;96936.37;1665748;85;25379;-85
2022/04/24 07:36:08;;;;;;;;;;;;;;;10.35;100.00;96938.98;1650408;84;20313;-86
2022/04/24 07:38:34;;;;;;;;;;;;;;;10.35;100.00;96937.20;1666605;84;24783;-87
2022/04/24 07:41:00;;;;;;;;;;;;;;;10.34;100.00;96938.64;1668813;84;20872;-87
2022/04/24 07:43:26;;;;;;;;;;;;;;;10.33;100.00;96932.58;1667718;84;25977;-88
2022/04/24 07:45:55;;;;;;;;;;;;;;;10.33;100.00;96933.89;1667529;84;20457;-87
2022/04/24 07:48:21;;;;;;;;;;;;;;;10.36;100.00;96930.18;1667747;84;20231;-87
2022/04/24 07:50:52;;;;;;;;;;;;;;;10.39;100.00;96928.58;1665663;84;24727;-87
2022/04/24 07:53:19;;;;;;;;;;;;;;;10.39;100.00;96934.63;1666180;84;22058;-87
2022/04/24 07:55:47;;;;;;;;;;;;;;;10.40;100.00;96932.36;1668446;84;26001;-87
2022/04/24 07:58:13;;;;;;;;;;;;;;;10.41;100.00;96927.48;1678935;84;24464;-88
2022/04/24 08:00:40;;;;;;;;;;;;;;;10.40;100.00;96937.59;1674049;84;20460;-87
2022/04/24 08:03:09;;;;;;;;;;;;;;;10.41;100.00;96940.55;1670063;84;24515;-87
2022/04/24 08:05:36;;;;;;;;;;;;;;;10.41;100.00;96939.25;1670404;84;21995;-87
2022/04/24 08:08:11;;;;;;;;;;;;;;;10.41;100.00;96947.09;1669946;84;22866;-87
2022/04/24 08:10:38;;;;;;;;;;;;;;;10.41;100.00;96937.11;1665389;84;24405;-89
2022/04/24 08:13:05;;;;;;;;;;;;;;;10.40;100.00;96940.20;1668735;86;20437;-89
2022/04/24 08:15:32;;;;;;;;;;;;;;;10.39;100.00;96931.19;1668335;86;24832;-89
2022/04/24 08:17:59;;;;;;;;;;;;;;;10.41;100.00;96928.78;1668083;84;22776;-88
2022/04/24 08:20:25;;;;;;;;;;;;;;;10.42;100.00;96930.41;1639409;86;26078;-88
2022/04/24 08:22:52;;;;;;;;;;;;;;;10.46;100.00;96934.89;1668560;84;20244;-88
2022/04/24 08:25:19;;;;;;;;;;;;;;;10.48;100.00;96925.92;1669474;86;20269;-88
2022/04/24 08:27:46;;;;;;;;;;;;;;;10.52;100.00;96928.27;1666919;86;24822;-88
2022/04/24 08:30:19;;;;;;;;;;;;;;;10.55;100.00;96924.87;1669517;84;22725;-88
2022/04/24 08:32:47;;;;;;;;;;;;;;;10.61;100.00;96923.47;1671052;84;26617;-88
2022/04/24 08:35:16;;;;;;;;;;;;;;;10.67;100.00;96922.89;1669422;84;24297;-88
2022/04/24 08:37:43;;;;;;;;;;;;;;;10.72;100.00;96925.42;1669369;84;20340;-88
2022/04/24 08:40:10;;;;;;;;;;;;;;;10.75;100.00;96917.75;1640368;86;24762;-88
2022/04/24 08:42:38;;;;;;;;;;;;;;;10.78;100.00;96916.16;1670671;84;22735;-87
2022/04/24 08:45:08;;;;;;;;;;;;;;;10.81;100.00;96912.76;1671286;84;25996;-88
2022/04/24 08:47:34;;;;;;;;;;;;;;;10.88;100.00;96913.01;1668934;86;25233;-88
2022/04/24 08:50:01;;;;;;;;;;;;;;;10.91;100.00;96905.67;1665358;84;20245;-88
2022/04/24 08:52:28;;;;;;;;;;;;;;;10.91;100.00;96903.55;1669823;84;24879;-88
2022/04/24 08:54:54;;;;;;;;;;;;;;;10.93;100.00;96905.54;1665309;85;22077;-88
2022/04/24 08:57:26;;;;;;;;;;;;;;;10.96;100.00;96907.88;1655046;85;26033;-88
2022/04/24 08:59:56;;;;;;;;;;;;;;;11.01;100.00;96905.64;1654371;85;24429;-89
2022/04/24 09:02:22;;;;;;;;;;;;;;;11.05;100.00;96902.23;1650592;85;20294;-88
2022/04/24 09:04:53;;;;;;;;;;;;;;;11.10;100.00;96902.13;1650092;85;25456;-88
2022/04/24 09:07:19;;;;;;;;;;;;;;;11.13;100.00;96890.04;1649959;86;22000;-88
2022/04/24 09:09:46;;;;;;;;;;;;;;;11.15;100.00;96886.80;1653963;85;26026;-88
2022/04/24 09:12:17;;;;;;;;;;;;;;;11.15;100.00;96888.11;1649552;85;24430;-88
2022/04/24 09:14:49;;;;;;;;;;;;;;;11.15;100.00;96885.97;1650644;86;20270;-88
2022/04/24 09:17:19;;;;;;;;;;;;;;;11.13;100.00;96876.95;1648153;86;24730;-88
2022/04/24 09:19:46;;;;;;;;;;;;;;;11.12;100.00;96876.64;1629465;87;22176;-87
2022/04/24 09:22:12;;;;;;;;;;;;;;;11.14;100.00;96872.05;1648692;86;26300;-87
2022/04/24 09:24:43;;;;;;;;;;;;;;;11.18;100.00;96860.30;1622362;87;24463;-87
2022/04/24 09:27:09;;;;;;;;;;;;;;;11.21;100.00;96862.64;1619929;88;20315;-87
2022/04/24 09:29:37;;;;;;;;;;;;;;;11.27;100.00;96858.13;1652298;85;24593;-86
2022/04/24 09:32:04;;;;;;;;;;;;;;;11.35;100.00;96859.97;1649894;87;22662;-87
2022/04/24 09:34:34;;;;;;;;;;;;;;;11.47;100.00;96852.22;1654299;85;26008;-86
2022/04/24 09:37:01;;;;;;;;;;;;;;;11.54;100.00;96851.14;1650960;87;24420;-87
2022/04/24 09:39:32;;;;;;;;;;;;;;;11.62;100.00;96851.19;1637741;87;20286;-87
2022/04/24 09:42:05;;;;;;;;;;;;;;;11.72;100.00;96849.32;1648036;85;24810;-87
2022/04/24 09:44:33;;;;;;;;;;;;;;;11.81;100.00;96852.36;1648304;85;21890;-87
2022/04/24 09:46:59;;;;;;;;;;;;;;;11.88;100.00;96856.02;1650089;85;26296;-87
2022/04/24 09:49:26;;;;;;;;;;;;;;;11.89;100.00;96846.36;1651211;87;24379;-87
2022/04/24 09:51:55;;;;;;;;;;;;;;;11.88;100.00;96843.40;1649744;85;20280;-87
2022/04/24 09:54:22;;;;;;;;;;;;;;;11.88;100.00;96835.05;1647700;85;24805;-87
2022/04/24 09:56:49;;;;;;;;;;;;;;;11.91;100.00;96839.97;1638676;86;22066;-87
2022/04/24 09:59:17;;;;;;;;;;;;;;;11.93;100.00;96839.34;1625916;86;26102;-87
2022/04/24 10:01:45;;;;;;;;;;;;;;;11.98;100.00;96838.87;1629973;87;24430;-87
2022/04/24 10:04:12;;;;;;;;;;;;;;;12.05;100.00;96827.62;1625267;86;20232;-87
2022/04/24 10:06:40;;;;;;;;;;;;;;;12.14;100.00;96822.74;1632332;87;24831;-87
2022/04/24 10:09:07;;;;;;;;;;;;;;;12.27;100.00;96820.19;1657949;86;22055;-87
2022/04/24 10:11:33;;;;;;;;;;;;;;;12.34;100.00;96821.18;1660094;84;26072;-87
2022/04/24 10:14:02;;;;;;;;;;;;;;;12.36;100.00;96817.44;1661303;85;20441;-87
2022/04/24 10:16:48;;;;;;;;;;;;;;;12.39;100.00;96811.86;1660419;84;20225;-88
2022/04/24 10:19:22;;;;;;;;;;;;;;;12.50;100.00;96801.08;1659763;84;24832;-86
2022/04/24 10:21:54;;;;;;;;;;;;;;;12.64;100.00;96803.59;1658086;84;22733;-87
2022/04/24 10:24:23;;;;;;;;;;;;;;;12.80;100.00;96811.52;1656151;84;26230;-88
2022/04/24 10:26:57;;;;;;;;;;;;;;;12.94;100.00;96808.25;1660411;84;24415;-88
2022/04/24 10:29:24;;;;;;;;;;;;;;;13.07;100.00;96806.97;1663725;84;20230;-89
2022/04/24 10:31:50;;;;;;;;;;;;;;;13.17;100.00;96806.34;1662076;84;24864;-88
2022/04/24 10:34:16;;;;;;;;;;;;;;;13.24;100.00;96805.55;1639857;85;20768;-88
2022/04/24 10:36:59;;;;;;;;;;;;;;;13.26;100.00;96796.98;1659648;86;26190;-87
2022/04/24 10:39:27;;;;;;;;;;;;;;;13.28;100.00;96791.58;1659833;86;24432;-87
2022/04/24 10:42:14;;;;;;;;;;;;;;;13.30;100.00;96783.05;1658418;86;20457;-87
2022/04/24 10:44:50;;;;;;;;;;;;;;;13.29;100.00;96782.23;1662675;85;24825;-87
2022/04/24 10:47:17;;;;;;;;;;;;;;;13.30;100.00;96773.36;1658786;85;23005;-87
2022/04/24 10:49:43;;;;;;;;;;;;;;;13.24;100.00;96770.56;1660100;86;25998;-87
2022/04/24 10:52:10;;;;;;;;;;;;;;;13.16;100.00;96767.92;1660501;84;20289;-87
2022/04/24 10:54:38;;;;;;;;;;;;;;;13.15;100.00;96778.92;1660508;86;20175;-88
2022/04/24 10:57:18;;;;;;;;;;;;;;;13.13;100.00;96774.34;1642764;85;24765;-89
2022/04/24 10:59:52;;;;;;;;;;;;;;;13.15;100.00;96781.55;1637824;85;21506;-88
2022/04/24 11:02:22;;;;;;;;;;;;;;;13.28;100.00;96777.95;1636813;87;26062;-88
2022/04/24 11:05:02;;;;;;;;;;;;;;;13.45;100.00;96789.28;1639834;86;24543;-89
2022/04/24 11:07:31;;;;;;;;;;;;;;;13.55;100.00;96791.73;1637236;87;20263;-88
2022/04/24 11:10:17;;;;;;;;;;;;;;;13.58;100.00;96793.52;1638102;85;24815;-87
2022/04/24 11:12:40;;;;;;;;;;;;;;;13.53;100.00;96790.57;1637459;86;22219;-88
2022/04/24 11:18:00;;;;;;;;;;;;;;;13.62;100.00;96786.14;1670954;85;24483;-88
2022/04/24 11:20:31;;;;;;;;;;;;;;;13.71;100.00;96776.76;1674388;85;20222;-87
2022/04/24 11:22:55;;;;;;;;;;;;;;;13.78;100.00;96768.54;1679151;85;24881;-88
2022/04/24 11:25:24;;;;;;;;;;;;;;;13.91;100.00;96766.68;1678034;84;21892;-90
2022/04/24 11:27:56;;;;;;;;;;;;;;;14.01;100.00;96760.77;1679789;85;25734;-87
2022/04/24 11:30:23;;;;;;;;;;;;;;;14.01;100.00;96761.25;1678052;85;25094;-87
2022/04/24 11:32:57;;;;;;;;;;;;;;;14.09;100.00;96759.89;1668089;85;227014;-88
2022/04/24 11:35:24;;;;;;;;;;;;;;;14.14;100.00;96753.63;1678274;85;102958;-87
2022/04/24 11:37:51;;;;;;;;;;;;;;;14.17;100.00;96754.62;1674315;85;21998;-87
2022/04/24 11:40:19;;;;;;;;;;;;;;;14.18;100.00;96757.06;1671835;84;26245;-88
2022/04/24 11:42:45;;;;;;;;;;;;;;;14.16;100.00;96750.34;1670787;84;25276;-88
2022/04/24 11:50:50;;;;;;;;;;;;;;;14.07;100.00;96742.95;1654249;86;22041;-87
2022/04/24 11:53:17;;;;;;;;;;;;;;;13.98;100.00;96745.80;1670170;86;25997;-87
2022/04/24 11:56:01;;;;;;;;;;;;;;;13.90;100.00;96749.78;1669684;86;24475;-87
2022/04/24 11:58:31;;;;;;;;;;;;;;;13.85;100.00;96738.95;1669083;85;20544;-88
2022/04/24 12:00:58;;;;;;;;;;;;;;;13.77;100.00;96734.03;1665732;86;24835;-87
2022/04/24 12:03:25;;;;;;;;;;;;;;;13.72;100.00;96725.00;1670537;86;22758;-87
2022/04/24 12:06:03;;;;;;;;;;;;;;;13.67;100.00;96728.63;1670483;84;26043;-87
2022/04/24 12:08:39;;;;;;;;;;;;;;;13.65;100.00;96719.59;1670567;84;25290;-87
2022/04/24 12:11:06;;;;;;;;;;;;;;;13.69;100.00;96726.14;1670395;86;20616;-87
2022/04/24 12:13:33;;;;;;;;;;;;;;;13.76;100.00;96725.81;1669975;86;24805;-87
2022/04/24 12:15:59;;;;;;;;;;;;;;;13.86;100.00;96724.30;1666714;84;22725;-87
2022/04/24 12:18:27;;;;;;;;;;;;;;;13.84;100.00;96714.45;1648690;87;21012;-87
2022/04/24 12:20:53;;;;;;;;;;;;;;;13.79;100.00;96714.15;1648299;87;24431;-86
2022/04/24 12:23:19;;;;;;;;;;;;;;;13.79;100.00;96704.95;1648668;87;20811;-88
2022/04/24 12:25:50;;;;;;;;;;;;;;;13.84;100.00;96711.83;1648644;87;24766;-87
2022/04/24 12:28:31;;;;;;;;;;;;;;;13.89;100.00;96712.14;1644470;86;22172;-87
2022/04/24 12:30:58;;;;;;;;;;;;;;;13.88;100.00;96709.67;1648587;87;25996;-87
2022/04/24 12:33:24;;;;;;;;;;;;;;;13.87;100.00;96703.59;1648361;87;24673;-87
2022/04/24 12:35:50;;;;;;;;;;;;;;;13.86;100.00;96700.63;1648560;87;20206;-88
2022/04/24 12:38:18;;;;;;;;;;;;;;;13.91;100.00;96704.09;1648420;87;24866;-87
2022/04/24 12:40:57;;;;;;;;;;;;;;;13.90;100.00;96699.81;1648367;87;22050;-87
2022/04/24 12:43:25;;;;;;;;;;;;;;;13.88;100.00;96684.69;1647902;87;26010;-87
2022/04/24 12:45:51;;;;;;;;;;;;;;;13.85;100.00;96685.05;1648103;86;24581;-88
2022/04/24 12:48:30;;;;;;;;;;;;;;;13.83;100.00;96687.83;1648716;87;20210;-87
2022/04/24 12:50:56;;;;;;;;;;;;;;;13.83;100.00;96678.14;1648069;87;24935;-88
2022/04/24 12:53:25;;;;;;;;;;;;;;;13.83;100.00;96682.09;1648153;87;20829;-88
2022/04/24 12:55:51;;;;;;;;;;;;;;;13.86;100.00;96682.72;1648598;87;25978;-88